createdAt,value
2023-08-29T00:02:33.951Z,14.52
2023-08-29T00:07:43.798Z,14.49
2023-08-29T00:12:52.269Z,14.49
2023-08-29T00:18:01.505Z,14.48
2023-08-29T00:23:11.853Z,14.41
2023-08-29T00:28:20.755Z,14.44
2023-08-29T00:33:28.914Z,14.35
2023-08-29T00:38:37.105Z,14.34
2023-08-29T00:43:45.486Z,14.37
2023-08-29T00:48:54.171Z,14.37
2023-08-29T00:54:03.302Z,14.41
2023-08-29T00:59:11.592Z,14.48
2023-08-29T01:04:20.976Z,14.44
2023-08-29T01:09:29.784Z,14.44
2023-08-29T01:14:43.052Z,14.49
2023-08-29T01:19:55.309Z,14.54
2023-08-29T01:25:14.522Z,14.58
2023-08-29T01:30:24.036Z,14.62
2023-08-29T01:35:32.813Z,14.54
2023-08-29T01:40:41.032Z,14.42
2023-08-29T01:45:49.874Z,14.40
2023-08-29T01:50:58.348Z,14.47
2023-08-29T01:56:09.790Z,14.52
2023-08-29T02:01:23.420Z,14.55
2023-08-29T02:06:34.389Z,14.56
2023-08-29T02:11:42.667Z,14.36
2023-08-29T02:16:50.946Z,14.10
2023-08-29T02:21:59.131Z,14.27
2023-08-29T02:27:07.977Z,14.53
2023-08-29T02:32:16.688Z,14.68
2023-08-29T02:37:25.688Z,14.55
2023-08-29T02:42:33.906Z,14.70
2023-08-29T02:47:42.838Z,14.85
2023-08-29T02:52:51.063Z,14.74
2023-08-29T02:58:00.074Z,14.48
2023-08-29T03:03:08.758Z,14.34
2023-08-29T03:08:17.073Z,14.32
2023-08-29T03:13:26.111Z,14.28
2023-08-29T03:18:34.653Z,14.35
2023-08-29T03:23:42.861Z,14.37
2023-08-29T03:28:52.061Z,14.33
2023-08-29T03:34:00.268Z,14.33
2023-08-29T03:39:09.018Z,14.41
2023-08-29T03:44:17.212Z,14.38
2023-08-29T03:49:26.330Z,14.31
2023-08-29T03:54:34.822Z,14.38
2023-08-29T03:59:43.309Z,14.35
2023-08-29T04:04:55.102Z,14.24
2023-08-29T04:10:04.990Z,14.26
2023-08-29T04:15:13.813Z,14.29
2023-08-29T04:20:22.927Z,14.24
2023-08-29T04:25:31.165Z,14.28
2023-08-29T04:30:39.676Z,14.40
2023-08-29T04:35:51.084Z,14.39
2023-08-29T04:40:59.295Z,14.39
2023-08-29T04:46:08.827Z,14.46
2023-08-29T04:51:17.376Z,14.51
2023-08-29T04:56:25.981Z,14.57
2023-08-29T05:01:34.216Z,14.60
2023-08-29T05:06:42.410Z,14.57
2023-08-29T05:11:50.630Z,14.57
2023-08-29T05:16:58.957Z,14.63
2023-08-29T05:22:07.644Z,14.76
2023-08-29T05:27:15.829Z,14.87
2023-08-29T05:32:26.607Z,15.14
2023-08-29T05:37:35.840Z,15.33
2023-08-29T05:42:44.018Z,15.57
2023-08-29T05:47:52.545Z,15.68
2023-08-29T05:53:01.224Z,15.68
2023-08-29T05:58:10.275Z,15.70
2023-08-29T06:03:20.604Z,15.56
2023-08-29T06:08:31.417Z,15.48
2023-08-29T06:13:40.013Z,15.45
2023-08-29T06:18:48.641Z,15.35
2023-08-29T06:23:57.316Z,15.40
2023-08-29T06:29:06.578Z,15.43
2023-08-29T06:34:14.836Z,15.47
2023-08-29T06:39:23.222Z,15.43
2023-08-29T06:44:31.502Z,15.40
2023-08-29T06:49:39.725Z,15.45
2023-08-29T06:54:48.248Z,15.48
2023-08-29T06:59:56.497Z,15.69
2023-08-29T07:05:06.129Z,15.72
2023-08-29T07:10:14.697Z,15.71
2023-08-29T07:15:24.082Z,15.91
2023-08-29T07:20:32.692Z,15.97
2023-08-29T07:25:42.936Z,15.92
2023-08-29T07:30:52.756Z,16.11
2023-08-29T07:36:01.058Z,16.25
2023-08-29T07:41:09.306Z,16.31
2023-08-29T07:46:17.725Z,16.33
2023-08-29T07:51:26.312Z,16.25
2023-08-29T07:56:35.546Z,16.24
2023-08-29T08:01:44.011Z,16.38
2023-08-29T08:06:52.216Z,16.48
2023-08-29T08:12:01.806Z,16.48
2023-08-29T08:17:10.027Z,16.42
2023-08-29T08:22:18.330Z,16.52
2023-08-29T08:27:26.551Z,16.56
2023-08-29T08:32:34.728Z,16.53
2023-08-29T08:37:42.941Z,16.48
2023-08-29T08:42:51.112Z,16.47
2023-08-29T08:48:00.190Z,16.64
2023-08-29T08:53:11.879Z,16.71
2023-08-29T08:58:21.036Z,16.78
2023-08-29T09:03:29.261Z,16.84
2023-08-29T09:08:38.350Z,16.81
2023-08-29T09:13:51.179Z,16.87
2023-08-29T09:18:59.998Z,16.84
2023-08-29T09:24:10.680Z,16.97
2023-08-29T09:29:22.892Z,16.90
2023-08-29T09:34:32.906Z,16.88
2023-08-29T09:39:41.351Z,16.88
2023-08-29T09:44:52.406Z,16.92
2023-08-29T09:50:00.681Z,16.93
2023-08-29T09:55:14.223Z,16.94
2023-08-29T10:00:24.272Z,16.90
2023-08-29T10:05:37.466Z,16.94
2023-08-29T10:10:46.694Z,17.11
2023-08-29T10:15:55.969Z,17.22
2023-08-29T10:21:06.341Z,17.06
2023-08-29T10:26:15.388Z,17.00
2023-08-29T10:31:23.975Z,17.18
2023-08-29T10:36:32.723Z,17.22
2023-08-29T10:41:50.199Z,17.25
2023-08-29T10:47:20.779Z,17.27
2023-08-29T10:52:39.014Z,17.31
2023-08-29T10:57:47.452Z,17.40
2023-08-29T11:02:58.267Z,17.49
2023-08-29T11:08:31.335Z,17.45
2023-08-29T11:13:57.947Z,17.44
2023-08-29T11:19:15.010Z,17.50
2023-08-29T11:24:24.671Z,17.51
2023-08-29T11:29:40.041Z,17.60
2023-08-29T11:34:53.085Z,17.71
2023-08-29T11:40:07.552Z,17.70
2023-08-29T11:45:45.220Z,17.60
2023-08-29T11:50:48.390Z,17.62
2023-08-29T11:55:56.680Z,17.65
2023-08-29T12:01:08.522Z,17.70
2023-08-29T12:06:17.484Z,17.71
2023-08-29T12:11:26.038Z,17.65
2023-08-29T12:16:34.595Z,17.56
2023-08-29T12:21:43.296Z,17.55
2023-08-29T12:26:51.528Z,17.54
2023-08-29T12:32:00.127Z,17.47
2023-08-29T12:37:08.948Z,17.50
2023-08-29T12:42:17.450Z,17.64
2023-08-29T12:47:25.675Z,17.55
2023-08-29T12:52:34.048Z,17.75
2023-08-29T12:57:42.304Z,17.69
2023-08-29T13:02:50.999Z,17.63
2023-08-29T13:07:59.500Z,17.60
2023-08-29T13:13:08.349Z,17.59
2023-08-29T13:18:16.711Z,17.55
2023-08-29T13:23:25.040Z,17.66
2023-08-29T13:28:33.327Z,17.63
2023-08-29T13:33:41.577Z,17.57
2023-08-29T13:38:49.894Z,17.58
2023-08-29T13:43:58.351Z,17.53
2023-08-29T13:49:07.299Z,17.56
2023-08-29T13:54:15.842Z,17.26
2023-08-29T13:59:24.057Z,17.13
2023-08-29T14:04:32.390Z,17.17
2023-08-29T14:09:41.274Z,17.16
2023-08-29T14:14:49.449Z,17.10
2023-08-29T14:19:58.397Z,17.36
2023-08-29T14:25:07.646Z,17.53
2023-08-29T14:30:16.331Z,17.48
2023-08-29T14:35:24.396Z,17.59
2023-08-29T14:40:32.437Z,17.76
2023-08-29T14:45:45.703Z,17.74
2023-08-29T14:50:53.754Z,17.86
2023-08-29T14:56:03.807Z,17.86
2023-08-29T15:01:11.993Z,17.44
2023-08-29T15:06:20.076Z,17.10
2023-08-29T15:11:28.966Z,17.00
2023-08-29T15:16:37.595Z,17.06
2023-08-29T15:21:45.654Z,17.23
2023-08-29T15:26:53.696Z,17.33
2023-08-29T15:32:01.745Z,17.33
2023-08-29T15:37:09.768Z,17.38
2023-08-29T15:42:17.996Z,17.38
2023-08-29T15:47:26.184Z,17.41
2023-08-29T15:52:34.632Z,17.48
2023-08-29T15:57:43.420Z,17.57
2023-08-29T16:02:54.141Z,17.55
2023-08-29T16:08:03.538Z,17.45
2023-08-29T16:13:11.999Z,17.46
2023-08-29T16:18:20.199Z,17.42
2023-08-29T16:23:28.654Z,17.33
2023-08-29T16:28:36.666Z,17.46
2023-08-29T16:33:44.711Z,17.55
2023-08-29T16:38:53.338Z,17.38
2023-08-29T16:44:01.727Z,17.28
2023-08-29T16:49:09.808Z,17.17
2023-08-29T16:54:19.259Z,17.22
2023-08-29T16:59:27.623Z,17.20
2023-08-29T17:04:35.662Z,17.12
2023-08-29T17:09:44.976Z,17.16
2023-08-29T17:14:54.589Z,17.36
2023-08-29T17:20:02.679Z,17.30
2023-08-29T17:25:12.484Z,17.25
2023-08-29T17:30:22.090Z,17.45
2023-08-29T17:35:30.456Z,17.49
2023-08-29T17:40:38.861Z,17.49
2023-08-29T17:45:55.254Z,17.36
2023-08-29T17:51:03.745Z,17.23
2023-08-29T17:56:11.783Z,17.17
2023-08-29T18:01:20.008Z,17.12
2023-08-29T18:06:28.489Z,17.12
2023-08-29T18:11:37.186Z,17.08
2023-08-29T18:16:46.862Z,17.02
2023-08-29T18:21:55.006Z,17.07
2023-08-29T18:27:03.196Z,16.99
2023-08-29T18:32:11.369Z,16.97
2023-08-29T18:37:19.427Z,17.00
2023-08-29T18:42:27.675Z,17.01
2023-08-29T18:47:36.105Z,16.95
2023-08-29T18:52:44.758Z,16.92
2023-08-29T18:57:52.902Z,16.76
2023-08-29T19:03:01.527Z,16.66
2023-08-29T19:08:10.116Z,16.58
2023-08-29T19:13:18.564Z,16.64
2023-08-29T19:18:27.033Z,16.73
2023-08-29T19:23:35.037Z,16.67
2023-08-29T19:28:43.076Z,16.62
2023-08-29T19:33:51.088Z,16.59
2023-08-29T19:39:12.189Z,16.55
2023-08-29T19:44:26.251Z,16.56
2023-08-29T19:49:40.245Z,16.55
2023-08-29T19:54:48.309Z,16.58
2023-08-29T19:59:56.384Z,16.58
2023-08-29T20:05:06.341Z,16.71
2023-08-29T20:10:14.771Z,16.77
2023-08-29T20:15:22.796Z,16.92
2023-08-29T20:20:31.050Z,16.93
2023-08-29T20:25:39.466Z,16.87
2023-08-29T20:30:47.520Z,16.81
2023-08-29T20:35:55.530Z,16.83
2023-08-29T20:41:03.944Z,16.86
2023-08-29T20:46:12.049Z,16.81
2023-08-29T20:51:20.278Z,16.79
2023-08-29T20:56:28.886Z,16.68
2023-08-29T21:01:36.914Z,16.68
2023-08-29T21:06:44.973Z,16.72
2023-08-29T21:11:53.830Z,16.77
2023-08-29T21:17:01.925Z,16.82
2023-08-29T21:22:10.304Z,16.70
2023-08-29T21:27:18.339Z,16.63
2023-08-29T21:32:26.334Z,16.53
2023-08-29T21:37:34.412Z,16.48
2023-08-29T21:42:42.445Z,16.41
2023-08-29T21:47:52.793Z,16.41
2023-08-29T21:53:00.824Z,16.41
2023-08-29T21:58:11.898Z,16.59
2023-08-29T22:03:21.168Z,16.69
2023-08-29T22:08:29.828Z,16.65
2023-08-29T22:13:37.930Z,16.56
2023-08-29T22:18:45.994Z,16.53
2023-08-29T22:23:54.464Z,16.54
2023-08-29T22:29:02.916Z,16.62
2023-08-29T22:34:11.066Z,16.60
2023-08-29T22:39:19.095Z,16.65
2023-08-29T22:44:27.222Z,16.60
2023-08-29T22:49:36.087Z,16.46
2023-08-29T22:54:44.085Z,16.45
2023-08-29T22:59:52.138Z,16.52
2023-08-29T23:05:00.159Z,16.44
2023-08-29T23:10:09.691Z,16.35
2023-08-29T23:15:18.121Z,16.31
2023-08-29T23:20:26.163Z,16.28
2023-08-29T23:25:34.804Z,16.22
2023-08-29T23:30:42.952Z,16.21
2023-08-29T23:35:51.420Z,16.13
2023-08-29T23:41:00.220Z,15.96
2023-08-29T23:46:08.458Z,15.92
2023-08-29T23:51:16.760Z,16.01
2023-08-29T23:56:24.855Z,15.90
